sensor_id;sensor_type;location;lat;lon;timestamp;temperature;humidity
14771;DHT22;7477;45.222;5.688;2023-02-23T00:03:19;9.50;99.90
14771;DHT22;7477;45.222;5.688;2023-02-23T00:06:38;9.50;99.90
14771;DHT22;7477;45.222;5.688;2023-02-23T00:09:57;9.50;99.90
14771;DHT22;7477;45.222;5.688;2023-02-23T00:13:17;9.50;99.90
14771;DHT22;7477;45.222;5.688;2023-02-23T00:16:36;9.40;99.90
14771;DHT22;7477;45.222;5.688;2023-02-23T00:19:55;9.40;99.90
14771;DHT22;7477;45.222;5.688;2023-02-23T00:23:15;9.40;99.90
14771;DHT22;7477;45.222;5.688;2023-02-23T00:26:36;9.40;99.90
14771;DHT22;7477;45.222;5.688;2023-02-23T00:29:56;9.40;99.90
14771;DHT22;7477;45.222;5.688;2023-02-23T00:33:15;9.40;99.90
14771;DHT22;7477;45.222;5.688;2023-02-23T00:36:35;9.30;99.90
14771;DHT22;7477;45.222;5.688;2023-02-23T00:39:55;9.20;99.90
14771;DHT22;7477;45.222;5.688;2023-02-23T00:43:14;9.20;99.90
14771;DHT22;7477;45.222;5.688;2023-02-23T00:46:36;9.30;99.90
14771;DHT22;7477;45.222;5.688;2023-02-23T00:49:56;9.20;99.90
14771;DHT22;7477;45.222;5.688;2023-02-23T00:53:15;9.20;99.90
14771;DHT22;7477;45.222;5.688;2023-02-23T00:56:35;9.20;99.90
14771;DHT22;7477;45.222;5.688;2023-02-23T00:59:54;9.20;99.90
14771;DHT22;7477;45.222;5.688;2023-02-23T01:03:14;9.10;99.90
14771;DHT22;7477;45.222;5.688;2023-02-23T01:06:34;9.20;99.90
14771;DHT22;7477;45.222;5.688;2023-02-23T01:09:55;9.10;99.90
14771;DHT22;7477;45.222;5.688;2023-02-23T01:13:14;9.10;99.90
14771;DHT22;7477;45.222;5.688;2023-02-23T01:16:36;9.10;99.90
14771;DHT22;7477;45.222;5.688;2023-02-23T01:19:56;9.00;99.90
14771;DHT22;7477;45.222;5.688;2023-02-23T01:23:16;9.00;99.90
14771;DHT22;7477;45.222;5.688;2023-02-23T01:26:41;9.00;99.90
14771;DHT22;7477;45.222;5.688;2023-02-23T01:30:01;8.90;99.90
14771;DHT22;7477;45.222;5.688;2023-02-23T01:33:20;8.80;99.90
14771;DHT22;7477;45.222;5.688;2023-02-23T01:36:41;8.90;99.90
14771;DHT22;7477;45.222;5.688;2023-02-23T01:40:02;8.80;99.90
14771;DHT22;7477;45.222;5.688;2023-02-23T01:43:27;8.80;99.90
14771;DHT22;7477;45.222;5.688;2023-02-23T01:46:46;8.80;99.90
14771;DHT22;7477;45.222;5.688;2023-02-23T01:50:08;8.90;99.90
14771;DHT22;7477;45.222;5.688;2023-02-23T01:53:32;8.90;99.90
14771;DHT22;7477;45.222;5.688;2023-02-23T01:56:54;8.80;99.90
14771;DHT22;7477;45.222;5.688;2023-02-23T02:00:17;8.80;99.90
14771;DHT22;7477;45.222;5.688;2023-02-23T02:03:57;8.80;99.90
14771;DHT22;7477;45.222;5.688;2023-02-23T02:07:22;8.80;99.90
14771;DHT22;7477;45.222;5.688;2023-02-23T02:10:42;8.80;99.90
14771;DHT22;7477;45.222;5.688;2023-02-23T02:24:37;8.70;99.90
14771;DHT22;7477;45.222;5.688;2023-02-23T02:31:46;8.70;99.90
14771;DHT22;7477;45.222;5.688;2023-02-23T02:39:15;8.70;99.90
14771;DHT22;7477;45.222;5.688;2023-02-23T02:42:57;8.70;99.90
14771;DHT22;7477;45.222;5.688;2023-02-23T02:46:26;8.60;99.90
14771;DHT22;7477;45.222;5.688;2023-02-23T02:49:59;8.60;99.90
14771;DHT22;7477;45.222;5.688;2023-02-23T02:57:05;8.60;99.90
14771;DHT22;7477;45.222;5.688;2023-02-23T03:00:38;8.60;99.90
14771;DHT22;7477;45.222;5.688;2023-02-23T03:04:24;8.60;99.90
14771;DHT22;7477;45.222;5.688;2023-02-23T03:08:18;8.60;99.90
14771;DHT22;7477;45.222;5.688;2023-02-23T03:12:32;8.60;99.90
14771;DHT22;7477;45.222;5.688;2023-02-23T03:16:36;8.50;99.90
14771;DHT22;7477;45.222;5.688;2023-02-23T03:20:25;8.50;99.90
14771;DHT22;7477;45.222;5.688;2023-02-23T03:24:20;8.60;99.90
14771;DHT22;7477;45.222;5.688;2023-02-23T03:35:56;8.60;99.90
14771;DHT22;7477;45.222;5.688;2023-02-23T03:39:47;8.50;99.90
14771;DHT22;7477;45.222;5.688;2023-02-23T03:43:35;8.50;99.90
14771;DHT22;7477;45.222;5.688;2023-02-23T03:47:16;8.50;99.90
14771;DHT22;7477;45.222;5.688;2023-02-23T03:51:00;8.50;99.90
14771;DHT22;7477;45.222;5.688;2023-02-23T03:54:45;8.40;99.90
14771;DHT22;7477;45.222;5.688;2023-02-23T03:58:35;8.50;99.90
14771;DHT22;7477;45.222;5.688;2023-02-23T04:02:15;8.50;99.90
14771;DHT22;7477;45.222;5.688;2023-02-23T04:05:55;8.40;99.90
14771;DHT22;7477;45.222;5.688;2023-02-23T04:09:34;8.40;99.90
14771;DHT22;7477;45.222;5.688;2023-02-23T04:13:19;8.40;99.90
14771;DHT22;7477;45.222;5.688;2023-02-23T04:16:41;8.30;99.90
14771;DHT22;7477;45.222;5.688;2023-02-23T04:20:01;8.30;99.90
14771;DHT22;7477;45.222;5.688;2023-02-23T04:23:21;8.30;99.90
14771;DHT22;7477;45.222;5.688;2023-02-23T04:26:43;8.20;99.90
14771;DHT22;7477;45.222;5.688;2023-02-23T04:30:03;8.20;99.90
14771;DHT22;7477;45.222;5.688;2023-02-23T04:33:23;8.10;99.90
14771;DHT22;7477;45.222;5.688;2023-02-23T04:36:45;8.10;99.90
14771;DHT22;7477;45.222;5.688;2023-02-23T04:40:05;8.10;99.90
14771;DHT22;7477;45.222;5.688;2023-02-23T04:43:25;8.10;99.90
14771;DHT22;7477;45.222;5.688;2023-02-23T04:46:44;8.10;99.90
14771;DHT22;7477;45.222;5.688;2023-02-23T04:50:04;8.10;99.90
14771;DHT22;7477;45.222;5.688;2023-02-23T04:53:24;8.10;99.90
14771;DHT22;7477;45.222;5.688;2023-02-23T04:56:45;8.00;99.90
14771;DHT22;7477;45.222;5.688;2023-02-23T05:00:04;8.00;99.90
14771;DHT22;7477;45.222;5.688;2023-02-23T05:03:24;7.90;99.90
14771;DHT22;7477;45.222;5.688;2023-02-23T05:06:43;7.90;99.90
14771;DHT22;7477;45.222;5.688;2023-02-23T05:10:04;7.80;99.90
14771;DHT22;7477;45.222;5.688;2023-02-23T05:13:24;7.70;99.90
14771;DHT22;7477;45.222;5.688;2023-02-23T05:16:43;7.70;99.90
14771;DHT22;7477;45.222;5.688;2023-02-23T05:20:02;7.70;99.90
14771;DHT22;7477;45.222;5.688;2023-02-23T05:23:22;7.70;99.90
14771;DHT22;7477;45.222;5.688;2023-02-23T05:26:42;7.70;99.90
14771;DHT22;7477;45.222;5.688;2023-02-23T05:30:02;7.60;99.90
14771;DHT22;7477;45.222;5.688;2023-02-23T05:33:21;7.70;99.90
14771;DHT22;7477;45.222;5.688;2023-02-23T05:36:40;7.60;99.90
14771;DHT22;7477;45.222;5.688;2023-02-23T05:39:59;7.60;99.90
14771;DHT22;7477;45.222;5.688;2023-02-23T05:43:19;7.60;99.90
14771;DHT22;7477;45.222;5.688;2023-02-23T05:46:38;7.60;99.90
14771;DHT22;7477;45.222;5.688;2023-02-23T05:49:58;7.50;99.90
14771;DHT22;7477;45.222;5.688;2023-02-23T05:53:17;7.40;99.90
14771;DHT22;7477;45.222;5.688;2023-02-23T05:56:37;7.40;99.90
14771;DHT22;7477;45.222;5.688;2023-02-23T05:59:56;7.30;99.90
14771;DHT22;7477;45.222;5.688;2023-02-23T06:03:16;7.30;99.90
14771;DHT22;7477;45.222;5.688;2023-02-23T06:06:36;7.30;99.90
14771;DHT22;7477;45.222;5.688;2023-02-23T06:09:55;7.20;99.90
14771;DHT22;7477;45.222;5.688;2023-02-23T06:13:14;7.20;99.90
14771;DHT22;7477;45.222;5.688;2023-02-23T06:16:34;7.30;99.90
14771;DHT22;7477;45.222;5.688;2023-02-23T06:19:53;7.20;99.90
14771;DHT22;7477;45.222;5.688;2023-02-23T06:23:12;7.20;99.90
14771;DHT22;7477;45.222;5.688;2023-02-23T06:26:33;7.10;99.90
14771;DHT22;7477;45.222;5.688;2023-02-23T06:29:53;7.10;99.90
14771;DHT22;7477;45.222;5.688;2023-02-23T06:33:12;7.10;99.90
14771;DHT22;7477;45.222;5.688;2023-02-23T06:36:32;7.00;99.90
14771;DHT22;7477;45.222;5.688;2023-02-23T06:39:52;7.00;99.90
14771;DHT22;7477;45.222;5.688;2023-02-23T06:43:14;7.00;99.90
14771;DHT22;7477;45.222;5.688;2023-02-23T06:46:33;7.00;99.90
14771;DHT22;7477;45.222;5.688;2023-02-23T06:49:53;7.10;99.90
14771;DHT22;7477;45.222;5.688;2023-02-23T06:53:13;7.00;99.90
14771;DHT22;7477;45.222;5.688;2023-02-23T06:56:32;7.00;99.90
14771;DHT22;7477;45.222;5.688;2023-02-23T06:59:51;7.00;99.90
14771;DHT22;7477;45.222;5.688;2023-02-23T07:03:11;7.00;99.90
14771;DHT22;7477;45.222;5.688;2023-02-23T07:06:30;7.10;99.90
14771;DHT22;7477;45.222;5.688;2023-02-23T07:09:49;7.10;99.90
14771;DHT22;7477;45.222;5.688;2023-02-23T07:13:08;7.10;99.90
14771;DHT22;7477;45.222;5.688;2023-02-23T07:16:28;7.10;99.90
14771;DHT22;7477;45.222;5.688;2023-02-23T07:19:47;7.10;99.90
14771;DHT22;7477;45.222;5.688;2023-02-23T07:23:06;7.10;99.90
14771;DHT22;7477;45.222;5.688;2023-02-23T07:26:26;7.10;99.90
14771;DHT22;7477;45.222;5.688;2023-02-23T07:29:45;7.10;99.90
14771;DHT22;7477;45.222;5.688;2023-02-23T07:33:05;7.10;99.90
14771;DHT22;7477;45.222;5.688;2023-02-23T07:36:24;7.10;99.90
14771;DHT22;7477;45.222;5.688;2023-02-23T07:39:44;7.10;99.90
14771;DHT22;7477;45.222;5.688;2023-02-23T07:43:04;7.20;99.90
14771;DHT22;7477;45.222;5.688;2023-02-23T07:46:23;7.20;99.90
14771;DHT22;7477;45.222;5.688;2023-02-23T07:49:42;7.30;99.90
14771;DHT22;7477;45.222;5.688;2023-02-23T07:53:02;7.30;99.90
14771;DHT22;7477;45.222;5.688;2023-02-23T07:56:21;7.30;99.90
14771;DHT22;7477;45.222;5.688;2023-02-23T07:59:40;7.40;99.90
14771;DHT22;7477;45.222;5.688;2023-02-23T08:02:59;7.50;99.90
14771;DHT22;7477;45.222;5.688;2023-02-23T08:06:19;7.90;99.90
14771;DHT22;7477;45.222;5.688;2023-02-23T08:09:39;10.10;99.90
14771;DHT22;7477;45.222;5.688;2023-02-23T08:12:58;8.80;99.90
14771;DHT22;7477;45.222;5.688;2023-02-23T08:16:18;8.10;99.90
14771;DHT22;7477;45.222;5.688;2023-02-23T08:19:37;8.00;99.90
14771;DHT22;7477;45.222;5.688;2023-02-23T08:22:57;9.30;99.90
14771;DHT22;7477;45.222;5.688;2023-02-23T08:26:17;10.30;99.90
14771;DHT22;7477;45.222;5.688;2023-02-23T08:29:37;10.60;99.90
14771;DHT22;7477;45.222;5.688;2023-02-23T08:32:57;10.10;99.90
14771;DHT22;7477;45.222;5.688;2023-02-23T08:36:17;8.80;99.90
14771;DHT22;7477;45.222;5.688;2023-02-23T08:39:36;8.40;99.90
14771;DHT22;7477;45.222;5.688;2023-02-23T08:42:56;8.40;99.90
14771;DHT22;7477;45.222;5.688;2023-02-23T08:46:15;8.30;99.90
14771;DHT22;7477;45.222;5.688;2023-02-23T08:49:36;8.30;99.90
14771;DHT22;7477;45.222;5.688;2023-02-23T08:52:55;8.30;99.90
14771;DHT22;7477;45.222;5.688;2023-02-23T08:56:15;8.30;99.90
14771;DHT22;7477;45.222;5.688;2023-02-23T08:59:35;8.40;99.90
14771;DHT22;7477;45.222;5.688;2023-02-23T09:02:55;8.50;99.90
14771;DHT22;7477;45.222;5.688;2023-02-23T09:06:19;9.20;99.90
14771;DHT22;7477;45.222;5.688;2023-02-23T09:09:38;8.90;99.90
14771;DHT22;7477;45.222;5.688;2023-02-23T09:12:57;9.10;99.90
14771;DHT22;7477;45.222;5.688;2023-02-23T09:16:17;9.00;99.90
14771;DHT22;7477;45.222;5.688;2023-02-23T09:19:36;8.80;99.90
14771;DHT22;7477;45.222;5.688;2023-02-23T09:22:55;8.70;99.90
14771;DHT22;7477;45.222;5.688;2023-02-23T09:26:15;8.70;99.90
14771;DHT22;7477;45.222;5.688;2023-02-23T09:29:36;8.70;99.90
14771;DHT22;7477;45.222;5.688;2023-02-23T09:32:59;8.80;99.90
14771;DHT22;7477;45.222;5.688;2023-02-23T09:36:22;8.80;99.90
14771;DHT22;7477;45.222;5.688;2023-02-23T09:39:42;8.80;99.90
14771;DHT22;7477;45.222;5.688;2023-02-23T09:47:28;8.90;99.90
14771;DHT22;7477;45.222;5.688;2023-02-23T09:50:56;9.00;99.90
14771;DHT22;7477;45.222;5.688;2023-02-23T09:54:18;9.00;99.90
14771;DHT22;7477;45.222;5.688;2023-02-23T09:57:44;9.10;99.90
14771;DHT22;7477;45.222;5.688;2023-02-23T10:01:29;9.10;99.90
14771;DHT22;7477;45.222;5.688;2023-02-23T10:05:09;9.10;99.90
14771;DHT22;7477;45.222;5.688;2023-02-23T10:12:38;9.20;99.90
14771;DHT22;7477;45.222;5.688;2023-02-23T10:19:33;9.30;99.90
14771;DHT22;7477;45.222;5.688;2023-02-23T10:22:56;9.40;99.90
14771;DHT22;7477;45.222;5.688;2023-02-23T10:26:24;9.60;99.90
14771;DHT22;7477;45.222;5.688;2023-02-23T10:33:23;9.60;99.90
14771;DHT22;7477;45.222;5.688;2023-02-23T10:37:00;9.80;99.90
14771;DHT22;7477;45.222;5.688;2023-02-23T10:40:25;9.90;99.90
14771;DHT22;7477;45.222;5.688;2023-02-23T10:43:46;9.90;99.90
14771;DHT22;7477;45.222;5.688;2023-02-23T10:47:20;10.00;99.90
14771;DHT22;7477;45.222;5.688;2023-02-23T10:50:41;10.10;99.90
14771;DHT22;7477;45.222;5.688;2023-02-23T10:54:36;10.20;99.90
14771;DHT22;7477;45.222;5.688;2023-02-23T10:58:03;10.30;99.90
14771;DHT22;7477;45.222;5.688;2023-02-23T11:01:42;10.40;99.90
14771;DHT22;7477;45.222;5.688;2023-02-23T11:05:06;10.40;99.90
14771;DHT22;7477;45.222;5.688;2023-02-23T11:08:32;10.40;99.90
14771;DHT22;7477;45.222;5.688;2023-02-23T11:12:00;10.50;99.90
14771;DHT22;7477;45.222;5.688;2023-02-23T11:22:18;10.70;99.90
14771;DHT22;7477;45.222;5.688;2023-02-23T11:25:42;10.80;99.90
14771;DHT22;7477;45.222;5.688;2023-02-23T11:29:13;10.90;99.90
14771;DHT22;7477;45.222;5.688;2023-02-23T11:32:33;11.00;99.90
14771;DHT22;7477;45.222;5.688;2023-02-23T11:39:58;11.10;99.90
14771;DHT22;7477;45.222;5.688;2023-02-23T11:43:18;11.00;99.90
14771;DHT22;7477;45.222;5.688;2023-02-23T11:46:41;11.00;99.90
14771;DHT22;7477;45.222;5.688;2023-02-23T11:50:04;11.00;99.90
14771;DHT22;7477;45.222;5.688;2023-02-23T11:53:31;11.10;99.90
14771;DHT22;7477;45.222;5.688;2023-02-23T11:56:52;11.10;99.90
14771;DHT22;7477;45.222;5.688;2023-02-23T12:00:22;11.10;99.90
14771;DHT22;7477;45.222;5.688;2023-02-23T12:03:54;11.10;99.90
14771;DHT22;7477;45.222;5.688;2023-02-23T12:07:36;11.10;99.90
14771;DHT22;7477;45.222;5.688;2023-02-23T12:11:03;11.20;99.90
14771;DHT22;7477;45.222;5.688;2023-02-23T12:15:05;11.20;99.90
14771;DHT22;7477;45.222;5.688;2023-02-23T12:22:22;11.90;99.90
14771;DHT22;7477;45.222;5.688;2023-02-23T12:25:56;11.90;99.90
14771;DHT22;7477;45.222;5.688;2023-02-23T12:33:12;12.00;99.90
14771;DHT22;7477;45.222;5.688;2023-02-23T12:36:59;11.90;99.90
14771;DHT22;7477;45.222;5.688;2023-02-23T12:40:27;12.00;99.90
14771;DHT22;7477;45.222;5.688;2023-02-23T12:43:51;12.00;99.90
14771;DHT22;7477;45.222;5.688;2023-02-23T12:47:35;12.00;99.90
14771;DHT22;7477;45.222;5.688;2023-02-23T12:50:57;11.90;99.90
14771;DHT22;7477;45.222;5.688;2023-02-23T12:54:18;12.00;99.90
14771;DHT22;7477;45.222;5.688;2023-02-23T12:57:51;12.00;99.90
14771;DHT22;7477;45.222;5.688;2023-02-23T13:08:40;12.10;99.90
14771;DHT22;7477;45.222;5.688;2023-02-23T13:20:29;12.20;99.90
14771;DHT22;7477;45.222;5.688;2023-02-23T13:23:23;12.10;99.90
14771;DHT22;7477;45.222;5.688;2023-02-23T13:30:16;12.10;99.90
14771;DHT22;7477;45.222;5.688;2023-02-23T13:33:38;12.10;99.90
14771;DHT22;7477;45.222;5.688;2023-02-23T13:36:59;12.20;99.90
14771;DHT22;7477;45.222;5.688;2023-02-23T13:43:48;12.20;99.90
14771;DHT22;7477;45.222;5.688;2023-02-23T13:47:16;12.30;99.90
14771;DHT22;7477;45.222;5.688;2023-02-23T13:57:42;12.50;99.90
14771;DHT22;7477;45.222;5.688;2023-02-23T14:01:30;12.50;99.90
14771;DHT22;7477;45.222;5.688;2023-02-23T14:04:49;12.50;99.90
14771;DHT22;7477;45.222;5.688;2023-02-23T14:08:27;12.60;99.90
14771;DHT22;7477;45.222;5.688;2023-02-23T14:12:22;12.60;99.90
14771;DHT22;7477;45.222;5.688;2023-02-23T14:19:11;12.70;99.90
14771;DHT22;7477;45.222;5.688;2023-02-23T14:22:33;12.80;99.90
14771;DHT22;7477;45.222;5.688;2023-02-23T14:29:29;12.80;99.90
14771;DHT22;7477;45.222;5.688;2023-02-23T14:32:50;12.80;99.90
14771;DHT22;7477;45.222;5.688;2023-02-23T14:39:40;13.00;99.90
14771;DHT22;7477;45.222;5.688;2023-02-23T14:43:17;13.20;99.90
14771;DHT22;7477;45.222;5.688;2023-02-23T14:47:00;13.20;99.90
14771;DHT22;7477;45.222;5.688;2023-02-23T14:50:32;13.20;99.90
14771;DHT22;7477;45.222;5.688;2023-02-23T14:53:51;13.20;99.90
14771;DHT22;7477;45.222;5.688;2023-02-23T14:57:35;13.10;99.90
14771;DHT22;7477;45.222;5.688;2023-02-23T15:00:54;13.20;99.90
14771;DHT22;7477;45.222;5.688;2023-02-23T15:04:17;13.30;99.90
14771;DHT22;7477;45.222;5.688;2023-02-23T15:07:39;13.30;99.90
14771;DHT22;7477;45.222;5.688;2023-02-23T15:11:02;13.40;99.90
14771;DHT22;7477;45.222;5.688;2023-02-23T15:14:23;13.50;99.90
14771;DHT22;7477;45.222;5.688;2023-02-23T15:17:45;13.40;99.90
14771;DHT22;7477;45.222;5.688;2023-02-23T15:21:19;13.40;99.90
14771;DHT22;7477;45.222;5.688;2023-02-23T15:24:46;13.30;99.90
14771;DHT22;7477;45.222;5.688;2023-02-23T15:28:26;13.20;99.90
14771;DHT22;7477;45.222;5.688;2023-02-23T15:31:49;13.10;99.90
14771;DHT22;7477;45.222;5.688;2023-02-23T15:35:11;13.10;99.90
14771;DHT22;7477;45.222;5.688;2023-02-23T15:38:34;13.10;99.90
14771;DHT22;7477;45.222;5.688;2023-02-23T15:41:54;13.10;99.90
14771;DHT22;7477;45.222;5.688;2023-02-23T15:48:48;13.10;99.90
14771;DHT22;7477;45.222;5.688;2023-02-23T15:52:21;13.00;99.90
14771;DHT22;7477;45.222;5.688;2023-02-23T15:55:43;13.00;99.90
14771;DHT22;7477;45.222;5.688;2023-02-23T15:59:10;13.00;99.90
14771;DHT22;7477;45.222;5.688;2023-02-23T16:02:31;12.90;99.90
14771;DHT22;7477;45.222;5.688;2023-02-23T16:09:27;12.90;99.90
14771;DHT22;7477;45.222;5.688;2023-02-23T16:12:51;12.90;99.90
14771;DHT22;7477;45.222;5.688;2023-02-23T16:16:13;12.90;99.90
14771;DHT22;7477;45.222;5.688;2023-02-23T16:19:37;12.90;99.90
14771;DHT22;7477;45.222;5.688;2023-02-23T16:23:00;12.80;99.90
14771;DHT22;7477;45.222;5.688;2023-02-23T16:26:49;12.80;99.90
14771;DHT22;7477;45.222;5.688;2023-02-23T16:33:41;12.70;99.90
14771;DHT22;7477;45.222;5.688;2023-02-23T16:37:21;12.70;99.90
14771;DHT22;7477;45.222;5.688;2023-02-23T16:40:44;12.70;99.90
14771;DHT22;7477;45.222;5.688;2023-02-23T16:44:17;12.60;99.90
14771;DHT22;7477;45.222;5.688;2023-02-23T16:47:44;12.60;99.90
14771;DHT22;7477;45.222;5.688;2023-02-23T16:51:17;12.60;99.90
14771;DHT22;7477;45.222;5.688;2023-02-23T16:54:36;12.60;99.90
14771;DHT22;7477;45.222;5.688;2023-02-23T16:58:01;12.60;99.90
14771;DHT22;7477;45.222;5.688;2023-02-23T17:01:21;12.60;99.90
14771;DHT22;7477;45.222;5.688;2023-02-23T17:04:41;12.50;99.90
14771;DHT22;7477;45.222;5.688;2023-02-23T17:08:06;12.50;99.90
14771;DHT22;7477;45.222;5.688;2023-02-23T17:11:28;12.50;99.90
14771;DHT22;7477;45.222;5.688;2023-02-23T17:14:48;12.50;99.90
14771;DHT22;7477;45.222;5.688;2023-02-23T17:18:07;12.50;99.90
14771;DHT22;7477;45.222;5.688;2023-02-23T17:21:26;12.50;99.90
14771;DHT22;7477;45.222;5.688;2023-02-23T17:24:46;12.40;99.90
14771;DHT22;7477;45.222;5.688;2023-02-23T17:28:06;12.40;99.90
14771;DHT22;7477;45.222;5.688;2023-02-23T17:31:25;12.40;99.90
14771;DHT22;7477;45.222;5.688;2023-02-23T17:34:45;12.30;99.90
14771;DHT22;7477;45.222;5.688;2023-02-23T17:38:08;12.30;99.90
14771;DHT22;7477;45.222;5.688;2023-02-23T17:41:27;12.30;99.90
14771;DHT22;7477;45.222;5.688;2023-02-23T17:44:46;12.30;99.90
14771;DHT22;7477;45.222;5.688;2023-02-23T17:48:05;12.20;99.90
14771;DHT22;7477;45.222;5.688;2023-02-23T17:51:25;12.20;99.90
14771;DHT22;7477;45.222;5.688;2023-02-23T17:54:44;12.20;99.90
14771;DHT22;7477;45.222;5.688;2023-02-23T17:58:04;12.20;99.90
14771;DHT22;7477;45.222;5.688;2023-02-23T18:01:23;12.20;99.90
14771;DHT22;7477;45.222;5.688;2023-02-23T18:04:43;12.10;99.90
14771;DHT22;7477;45.222;5.688;2023-02-23T18:08:02;12.10;99.90
14771;DHT22;7477;45.222;5.688;2023-02-23T18:11:22;12.10;99.90
14771;DHT22;7477;45.222;5.688;2023-02-23T18:14:41;12.10;99.90
14771;DHT22;7477;45.222;5.688;2023-02-23T18:18:01;12.00;99.90
14771;DHT22;7477;45.222;5.688;2023-02-23T18:21:21;12.00;99.90
14771;DHT22;7477;45.222;5.688;2023-02-23T18:24:40;12.00;99.90
14771;DHT22;7477;45.222;5.688;2023-02-23T18:28:00;12.00;99.90
14771;DHT22;7477;45.222;5.688;2023-02-23T18:31:21;11.90;99.90
14771;DHT22;7477;45.222;5.688;2023-02-23T18:34:41;11.90;99.90
14771;DHT22;7477;45.222;5.688;2023-02-23T18:38:02;11.90;99.90
14771;DHT22;7477;45.222;5.688;2023-02-23T18:41:23;11.80;99.90
14771;DHT22;7477;45.222;5.688;2023-02-23T18:44:42;11.80;99.90
14771;DHT22;7477;45.222;5.688;2023-02-23T18:48:03;11.70;99.90
14771;DHT22;7477;45.222;5.688;2023-02-23T18:51:24;11.80;99.90
14771;DHT22;7477;45.222;5.688;2023-02-23T18:54:44;11.80;99.90
14771;DHT22;7477;45.222;5.688;2023-02-23T18:58:03;11.70;99.90
14771;DHT22;7477;45.222;5.688;2023-02-23T19:01:29;11.70;99.90
14771;DHT22;7477;45.222;5.688;2023-02-23T19:04:48;11.70;99.90
14771;DHT22;7477;45.222;5.688;2023-02-23T19:08:08;11.70;99.90
14771;DHT22;7477;45.222;5.688;2023-02-23T19:11:33;11.70;99.90
14771;DHT22;7477;45.222;5.688;2023-02-23T19:14:52;11.60;99.90
14771;DHT22;7477;45.222;5.688;2023-02-23T19:18:12;11.50;99.90
14771;DHT22;7477;45.222;5.688;2023-02-23T19:21:31;11.50;99.90
14771;DHT22;7477;45.222;5.688;2023-02-23T19:24:50;11.50;99.90
14771;DHT22;7477;45.222;5.688;2023-02-23T19:28:10;11.50;99.90
14771;DHT22;7477;45.222;5.688;2023-02-23T19:31:31;11.50;99.90
14771;DHT22;7477;45.222;5.688;2023-02-23T19:34:51;11.40;99.90
14771;DHT22;7477;45.222;5.688;2023-02-23T19:38:10;11.40;99.90
14771;DHT22;7477;45.222;5.688;2023-02-23T19:41:31;11.40;99.90
14771;DHT22;7477;45.222;5.688;2023-02-23T19:44:50;11.30;99.90
14771;DHT22;7477;45.222;5.688;2023-02-23T19:48:09;11.30;99.90
14771;DHT22;7477;45.222;5.688;2023-02-23T19:51:28;11.20;99.90
14771;DHT22;7477;45.222;5.688;2023-02-23T19:54:48;11.20;99.90
14771;DHT22;7477;45.222;5.688;2023-02-23T19:58:08;11.20;99.90
14771;DHT22;7477;45.222;5.688;2023-02-23T20:01:27;11.20;99.90
14771;DHT22;7477;45.222;5.688;2023-02-23T20:04:48;11.20;99.90
14771;DHT22;7477;45.222;5.688;2023-02-23T20:08:08;11.20;99.90
14771;DHT22;7477;45.222;5.688;2023-02-23T20:11:28;11.20;99.90
14771;DHT22;7477;45.222;5.688;2023-02-23T20:14:49;11.20;99.90
14771;DHT22;7477;45.222;5.688;2023-02-23T20:18:09;11.20;99.90
14771;DHT22;7477;45.222;5.688;2023-02-23T20:21:29;11.20;99.90
14771;DHT22;7477;45.222;5.688;2023-02-23T20:24:49;11.20;99.90
14771;DHT22;7477;45.222;5.688;2023-02-23T20:28:08;11.20;99.90
14771;DHT22;7477;45.222;5.688;2023-02-23T20:31:30;11.20;99.90
14771;DHT22;7477;45.222;5.688;2023-02-23T20:34:50;11.30;99.90
14771;DHT22;7477;45.222;5.688;2023-02-23T20:38:09;11.30;99.90
14771;DHT22;7477;45.222;5.688;2023-02-23T20:41:29;11.30;99.90
14771;DHT22;7477;45.222;5.688;2023-02-23T20:44:50;11.30;99.90
14771;DHT22;7477;45.222;5.688;2023-02-23T20:48:10;11.30;99.90
14771;DHT22;7477;45.222;5.688;2023-02-23T20:51:29;11.20;99.90
14771;DHT22;7477;45.222;5.688;2023-02-23T20:54:48;11.20;99.90
14771;DHT22;7477;45.222;5.688;2023-02-23T20:58:08;11.10;99.90
14771;DHT22;7477;45.222;5.688;2023-02-23T21:01:27;11.10;99.90
14771;DHT22;7477;45.222;5.688;2023-02-23T21:04:46;11.00;99.90
14771;DHT22;7477;45.222;5.688;2023-02-23T21:08:07;11.00;99.90
14771;DHT22;7477;45.222;5.688;2023-02-23T21:11:27;11.00;99.90
14771;DHT22;7477;45.222;5.688;2023-02-23T21:14:47;10.90;99.90
14771;DHT22;7477;45.222;5.688;2023-02-23T21:18:06;10.90;99.90
14771;DHT22;7477;45.222;5.688;2023-02-23T21:21:26;10.90;99.90
14771;DHT22;7477;45.222;5.688;2023-02-23T21:24:47;10.90;99.90
14771;DHT22;7477;45.222;5.688;2023-02-23T21:28:06;10.90;99.90
14771;DHT22;7477;45.222;5.688;2023-02-23T21:31:25;10.90;99.90
14771;DHT22;7477;45.222;5.688;2023-02-23T21:34:45;10.80;99.90
14771;DHT22;7477;45.222;5.688;2023-02-23T21:38:04;10.80;99.90
14771;DHT22;7477;45.222;5.688;2023-02-23T21:41:24;10.80;99.90
14771;DHT22;7477;45.222;5.688;2023-02-23T21:44:45;10.70;99.90
14771;DHT22;7477;45.222;5.688;2023-02-23T21:48:04;10.70;99.90
14771;DHT22;7477;45.222;5.688;2023-02-23T21:51:24;10.70;99.90
14771;DHT22;7477;45.222;5.688;2023-02-23T21:54:48;10.60;99.90
14771;DHT22;7477;45.222;5.688;2023-02-23T21:58:08;10.60;99.90
14771;DHT22;7477;45.222;5.688;2023-02-23T22:01:30;10.60;99.90
14771;DHT22;7477;45.222;5.688;2023-02-23T22:04:50;10.60;99.90
14771;DHT22;7477;45.222;5.688;2023-02-23T22:08:09;10.70;99.90
14771;DHT22;7477;45.222;5.688;2023-02-23T22:11:33;10.60;99.90
14771;DHT22;7477;45.222;5.688;2023-02-23T22:14:54;10.60;99.90
14771;DHT22;7477;45.222;5.688;2023-02-23T22:18:13;10.50;99.90
14771;DHT22;7477;45.222;5.688;2023-02-23T22:21:36;10.50;99.90
14771;DHT22;7477;45.222;5.688;2023-02-23T22:24:55;10.50;99.90
14771;DHT22;7477;45.222;5.688;2023-02-23T22:28:15;10.50;99.90
14771;DHT22;7477;45.222;5.688;2023-02-23T22:31:38;10.50;99.90
14771;DHT22;7477;45.222;5.688;2023-02-23T22:35:00;10.50;99.90
14771;DHT22;7477;45.222;5.688;2023-02-23T22:38:19;10.40;99.90
14771;DHT22;7477;45.222;5.688;2023-02-23T22:41:38;10.40;99.90
14771;DHT22;7477;45.222;5.688;2023-02-23T22:45:01;10.40;99.90
14771;DHT22;7477;45.222;5.688;2023-02-23T22:48:21;10.40;99.90
14771;DHT22;7477;45.222;5.688;2023-02-23T22:51:42;10.30;99.90
14771;DHT22;7477;45.222;5.688;2023-02-23T22:55:01;10.30;99.90
14771;DHT22;7477;45.222;5.688;2023-02-23T22:58:23;10.30;99.90
14771;DHT22;7477;45.222;5.688;2023-02-23T23:01:44;10.20;99.90
14771;DHT22;7477;45.222;5.688;2023-02-23T23:05:05;10.20;99.90
14771;DHT22;7477;45.222;5.688;2023-02-23T23:08:25;10.20;99.90
14771;DHT22;7477;45.222;5.688;2023-02-23T23:11:44;10.20;99.90
14771;DHT22;7477;45.222;5.688;2023-02-23T23:15:05;10.10;99.90
14771;DHT22;7477;45.222;5.688;2023-02-23T23:18:32;10.20;99.90
14771;DHT22;7477;45.222;5.688;2023-02-23T23:21:53;10.10;99.90
14771;DHT22;7477;45.222;5.688;2023-02-23T23:25:13;10.20;99.90
14771;DHT22;7477;45.222;5.688;2023-02-23T23:28:32;10.00;99.90
14771;DHT22;7477;45.222;5.688;2023-02-23T23:31:58;10.00;99.90
14771;DHT22;7477;45.222;5.688;2023-02-23T23:35:20;10.00;99.90
14771;DHT22;7477;45.222;5.688;2023-02-23T23:38:40;9.90;99.90
14771;DHT22;7477;45.222;5.688;2023-02-23T23:42:00;9.90;99.90
14771;DHT22;7477;45.222;5.688;2023-02-23T23:45:20;9.80;99.90
14771;DHT22;7477;45.222;5.688;2023-02-23T23:48:43;9.90;99.90
14771;DHT22;7477;45.222;5.688;2023-02-23T23:52:03;9.90;99.90